Time;durP1;ratioP1;P1;durP2;ratioP2;P2;SDS_P1;SDS_P2;PMS_P1;PMS_P2;Temp;Humidity;BMP_temperature;BMP_pressure;BME280_temperature;BME280_humidity;BME280_pressure;Samples;Min_cycle;Max_cycle;Signal;HPM_P1;HPM_P2
2023/06/19 00:00:12;;;;;;;7.80;5.50;;;;;;;28.76;42.71;100130.23;107827;1288;21986;-75
2023/06/19 00:02:41;;;;;;;8.30;5.90;;;;;;;28.72;42.94;100135.29;108101;1288;21992;-61
2023/06/19 00:05:07;;;;;;;10.00;6.10;;;;;;;28.68;43.09;100136.89;108180;1288;21987;-75
2023/06/19 00:07:38;;;;;;;12.10;5.90;;;;;;;28.65;43.16;100138.29;108137;1287;21992;-71
2023/06/19 00:10:05;;;;;;;12.40;6.40;;;;;;;28.59;43.23;100138.95;108158;1288;23625;-74
2023/06/19 00:12:31;;;;;;;8.80;5.50;;;;;;;28.55;43.58;100141.19;108137;1288;21989;-62
2023/06/19 00:14:56;;;;;;;8.10;5.80;;;;;;;28.50;43.53;100139.48;108194;1277;21992;-62
2023/06/19 00:17:25;;;;;;;10.00;5.90;;;;;;;28.46;43.66;100139.31;108219;1287;22045;-61
2023/06/19 00:19:51;;;;;;;9.10;5.50;;;;;;;28.42;43.75;100144.14;108112;1280;21993;-61
2023/06/19 00:22:16;;;;;;;7.90;5.40;;;;;;;28.39;43.78;100149.86;108096;1288;22011;-61
2023/06/19 00:24:42;;;;;;;10.30;5.90;;;;;;;28.39;43.64;100154.23;108141;1288;22452;-76
2023/06/19 00:27:08;;;;;;;8.30;5.20;;;;;;;28.40;43.76;100151.39;108034;1280;23647;-73
2023/06/19 00:29:35;;;;;;;11.30;6.50;;;;;;;28.40;44.01;100151.40;108300;1287;22014;-61
2023/06/19 00:32:00;;;;;;;7.80;5.90;;;;;;;28.38;43.96;100152.50;108186;1287;21991;-68
2023/06/19 00:34:28;;;;;;;13.80;5.70;;;;;;;28.35;44.07;100153.61;108156;1284;21987;-61
2023/06/19 00:36:57;;;;;;;10.50;6.00;;;;;;;28.31;44.22;100146.44;108270;1287;22000;-62
2023/06/19 00:39:23;;;;;;;7.30;5.70;;;;;;;28.22;44.43;100144.48;108069;1287;210609;-61
2023/06/19 00:41:51;;;;;;;9.70;6.10;;;;;;;28.08;45.11;100147.21;108265;1287;21987;-61
2023/06/19 00:44:16;;;;;;;8.40;5.50;;;;;;;27.99;45.54;100148.73;108300;1278;21989;-75
2023/06/19 00:46:42;;;;;;;7.80;5.60;;;;;;;27.92;45.64;100144.09;108213;1287;23930;-75
2023/06/19 00:49:08;;;;;;;9.50;6.20;;;;;;;27.85;45.97;100139.83;108107;1287;21986;-75
2023/06/19 00:51:33;;;;;;;9.20;5.80;;;;;;;27.77;46.03;100136.94;108064;1278;21987;-75
2023/06/19 00:53:59;;;;;;;7.50;6.00;;;;;;;27.71;46.12;100132.04;108146;1287;21989;-75
2023/06/19 00:56:25;;;;;;;10.30;5.40;;;;;;;27.67;46.37;100130.42;107979;1284;21988;-61
2023/06/19 00:58:51;;;;;;;11.90;6.10;;;;;;;27.62;46.33;100135.59;108295;1277;21954;-72
2023/06/19 01:01:17;;;;;;;10.30;5.70;;;;;;;27.57;46.36;100137.40;108252;1287;23143;-74
2023/06/19 01:03:43;;;;;;;6.80;5.70;;;;;;;27.64;46.20;100135.40;108138;1281;21995;-74
2023/06/19 01:06:14;;;;;;;8.00;5.80;;;;;;;27.64;46.28;100129.80;107937;1288;21988;-61
2023/06/19 01:08:49;;;;;;;9.40;5.20;;;;;;;27.58;46.90;100125.13;108224;1287;21992;-61
2023/06/19 01:11:17;;;;;;;9.10;5.50;;;;;;;27.52;47.01;100123.63;108101;1278;21989;-76
2023/06/19 01:13:43;;;;;;;8.60;5.20;;;;;;;27.52;46.31;100120.61;108173;1287;21989;-61
2023/06/19 01:16:09;;;;;;;8.10;5.40;;;;;;;27.51;46.58;100123.02;108090;1284;22005;-63
2023/06/19 01:18:35;;;;;;;9.10;5.00;;;;;;;27.44;46.77;100129.68;108182;1275;21995;-75
2023/06/19 01:21:16;;;;;;;8.20;5.40;;;;;;;27.40;46.84;100132.06;107978;1288;21988;-75
2023/06/19 01:23:41;;;;;;;11.30;5.50;;;;;;;27.35;47.97;100138.27;108230;1288;21985;-76
2023/06/19 01:26:07;;;;;;;8.30;5.80;;;;;;;27.25;48.67;100137.67;108233;1287;23605;-61
2023/06/19 01:28:39;;;;;;;8.50;5.70;;;;;;;27.14;49.61;100135.88;108282;1284;22005;-61
2023/06/19 01:31:07;;;;;;;11.00;6.10;;;;;;;27.03;49.67;100139.16;108069;1284;21981;-62
2023/06/19 01:33:34;;;;;;;6.60;5.20;;;;;;;26.93;50.60;100140.91;108209;1277;21974;-61
2023/06/19 01:36:01;;;;;;;10.80;5.90;;;;;;;26.83;50.47;100142.30;108009;1278;21994;-77
2023/06/19 01:38:27;;;;;;;9.30;5.70;;;;;;;26.76;50.97;100145.38;109026;1287;23660;-79
2023/06/19 01:40:53;;;;;;;10.00;6.10;;;;;;;26.69;50.18;100146.84;107976;1286;22735;-61
2023/06/19 01:43:19;;;;;;;9.70;5.90;;;;;;;26.70;50.24;100149.66;108105;1277;22020;-75
2023/06/19 01:45:45;;;;;;;10.20;5.40;;;;;;;26.70;50.59;100147.98;108263;1278;21989;-76
2023/06/19 01:48:10;;;;;;;9.80;5.60;;;;;;;26.71;50.07;100148.27;108029;1287;21986;-75
2023/06/19 01:50:36;;;;;;;9.30;5.60;;;;;;;26.75;50.21;100145.45;108098;1286;22030;-76
2023/06/19 01:53:02;;;;;;;8.50;5.10;;;;;;;26.79;49.97;100152.14;108107;1287;21989;-61
2023/06/19 01:55:28;;;;;;;8.00;5.30;;;;;;;26.84;49.70;100152.44;108175;1284;21986;-76
2023/06/19 01:57:53;;;;;;;7.80;5.30;;;;;;;26.89;49.58;100152.76;108180;1281;21983;-61
2023/06/19 02:00:20;;;;;;;10.40;6.30;;;;;;;26.94;49.68;100152.71;108094;1278;21977;-61
2023/06/19 02:02:46;;;;;;;8.70;5.20;;;;;;;26.95;49.54;100162.52;108138;1278;21958;-77
2023/06/19 02:05:13;;;;;;;10.80;5.40;;;;;;;26.97;49.14;100169.02;108161;1287;23400;-61
2023/06/19 02:07:39;;;;;;;6.60;4.40;;;;;;;27.00;48.91;100174.91;108082;1287;23121;-61
2023/06/19 02:10:06;;;;;;;8.60;4.70;;;;;;;27.02;48.80;100179.96;108258;1287;21991;-77
2023/06/19 02:12:32;;;;;;;13.10;5.30;;;;;;;27.05;49.03;100181.35;108107;1287;21992;-62
2023/06/19 02:14:57;;;;;;;9.10;5.40;;;;;;;27.05;48.96;100180.64;108200;1277;21995;-76
2023/06/19 02:17:23;;;;;;;5.60;4.40;;;;;;;27.05;48.70;100182.41;108158;1287;21994;-61
2023/06/19 02:19:48;;;;;;;7.30;4.80;;;;;;;27.04;48.58;100179.24;108251;1276;22007;-61
2023/06/19 02:22:14;;;;;;;9.90;5.20;;;;;;;27.03;48.56;100176.96;108286;1287;22029;-76
2023/06/19 02:24:40;;;;;;;6.30;4.70;;;;;;;27.04;48.59;100182.17;108212;1284;23732;-76
2023/06/19 02:27:06;;;;;;;6.80;4.60;;;;;;;27.02;48.68;100180.82;108096;1284;21983;-77
2023/06/19 02:29:33;;;;;;;6.90;4.80;;;;;;;27.01;48.60;100175.72;108099;1287;23635;-76
2023/06/19 02:32:00;;;;;;;7.70;5.20;;;;;;;26.99;48.88;100172.63;108089;1287;23306;-76
2023/06/19 02:34:25;;;;;;;8.40;4.50;;;;;;;26.96;48.73;100169.48;108127;1284;23711;-61
2023/06/19 02:36:51;;;;;;;6.90;4.80;;;;;;;26.94;48.85;100168.59;108090;1287;21987;-61
2023/06/19 02:39:18;;;;;;;9.80;5.50;;;;;;;26.88;49.07;100171.35;108072;1286;21991;-71
2023/06/19 02:41:45;;;;;;;9.70;5.10;;;;;;;26.83;49.74;100170.16;108124;1287;22048;-77
2023/06/19 02:44:12;;;;;;;9.70;5.70;;;;;;;26.74;50.33;100171.78;108186;1287;23052;-59
2023/06/19 02:46:39;;;;;;;8.90;5.10;;;;;;;26.64;50.64;100174.06;108194;1287;22001;-77
2023/06/19 02:49:04;;;;;;;9.20;5.10;;;;;;;26.59;50.36;100179.02;108005;1287;22149;-77
2023/06/19 02:51:30;;;;;;;8.40;5.10;;;;;;;26.57;50.67;100174.60;108025;1284;23715;-77
2023/06/19 02:53:55;;;;;;;7.00;4.60;;;;;;;26.56;50.42;100176.14;108178;1284;21989;-76
2023/06/19 02:56:22;;;;;;;9.80;5.40;;;;;;;26.57;50.90;100175.92;108109;1277;22927;-60
2023/06/19 02:58:47;;;;;;;7.80;5.50;;;;;;;26.57;51.28;100176.84;108124;1284;21992;-62
2023/06/19 03:01:13;;;;;;;9.40;5.60;;;;;;;26.56;51.26;100183.35;108019;1287;21982;-77
2023/06/19 03:03:40;;;;;;;11.50;6.50;;;;;;;26.58;50.95;100185.54;109749;1284;23638;-77
2023/06/19 03:06:07;;;;;;;10.20;5.60;;;;;;;26.63;51.05;100185.16;107954;1284;23609;-60
2023/06/19 03:08:34;;;;;;;11.40;5.90;;;;;;;26.65;51.37;100189.79;108186;1287;22037;-61
2023/06/19 03:10:59;;;;;;;11.40;6.60;;;;;;;26.66;51.76;100194.42;108222;1287;21989;-61
2023/06/19 03:13:25;;;;;;;11.00;6.20;;;;;;;26.65;52.03;100195.77;108126;1286;21991;-60
2023/06/19 03:15:51;;;;;;;12.40;6.40;;;;;;;26.65;52.35;100198.81;108471;1287;21824;-62
2023/06/19 03:18:16;;;;;;;11.40;6.40;;;;;;;26.65;52.76;100205.30;110084;1281;21802;-61
2023/06/19 03:20:42;;;;;;;10.60;6.10;;;;;;;26.58;54.13;100208.04;110075;1277;22341;-61
2023/06/19 03:23:07;;;;;;;9.80;6.30;;;;;;;26.42;53.72;100214.92;110074;1281;22564;-62
2023/06/19 03:25:34;;;;;;;10.40;6.50;;;;;;;26.33;54.08;100218.94;110069;1277;22366;-72
2023/06/19 03:28:02;;;;;;;13.70;5.70;;;;;;;26.30;54.70;100216.77;108810;1278;23113;-71
2023/06/19 03:30:27;;;;;;;11.30;6.10;;;;;;;26.30;55.32;100219.30;108168;1287;21988;-70
2023/06/19 03:32:53;;;;;;;12.90;6.40;;;;;;;26.28;55.47;100223.55;108083;1278;21986;-61
2023/06/19 03:35:19;;;;;;;11.60;6.00;;;;;;;26.29;55.28;100226.36;108082;1284;21989;-69
2023/06/19 03:37:44;;;;;;;10.90;5.80;;;;;;;26.33;55.19;100225.73;108088;1281;22006;-71
2023/06/19 03:40:13;;;;;;;9.60;6.10;;;;;;;26.37;55.34;100225.05;108075;1287;22458;-60
2023/06/19 03:42:40;;;;;;;10.50;6.70;;;;;;;26.39;55.49;100226.08;108120;1284;21988;-67
2023/06/19 03:45:06;;;;;;;9.70;6.60;;;;;;;26.41;55.36;100221.27;108239;1283;21983;-69
2023/06/19 03:47:32;;;;;;;8.60;6.90;;;;;;;26.42;55.61;100219.19;108123;1287;21999;-61
2023/06/19 03:49:58;;;;;;;9.10;6.60;;;;;;;26.43;55.63;100216.11;108108;1281;21989;-65
2023/06/19 03:52:23;;;;;;;21.90;18.00;;;;;;;26.44;56.14;100214.06;108117;1287;21989;-61
2023/06/19 03:54:49;;;;;;;13.90;10.60;;;;;;;26.46;56.13;100213.35;108095;1284;21989;-63
2023/06/19 03:57:15;;;;;;;12.40;9.00;;;;;;;26.51;55.85;100211.85;108111;1284;21984;-65
2023/06/19 03:59:40;;;;;;;11.90;7.00;;;;;;;26.56;56.16;100214.69;108121;1287;21992;-64
2023/06/19 04:02:06;;;;;;;11.30;6.40;;;;;;;26.61;56.23;100216.44;108060;1287;22023;-61
2023/06/19 04:04:31;;;;;;;10.60;7.30;;;;;;;26.65;56.34;100216.06;108103;1281;22079;-64
2023/06/19 04:06:59;;;;;;;11.50;6.90;;;;;;;26.66;56.24;100217.07;108061;1284;22025;-62
2023/06/19 04:09:25;;;;;;;10.20;6.90;;;;;;;26.61;56.13;100213.91;108094;1287;21999;-64
2023/06/19 04:11:50;;;;;;;9.90;6.60;;;;;;;26.54;56.87;100213.90;108115;1287;22023;-64
2023/06/19 04:14:16;;;;;;;10.10;6.10;;;;;;;26.52;57.44;100212.10;108146;1287;21992;-63
2023/06/19 04:16:42;;;;;;;10.50;6.70;;;;;;;26.54;57.47;100214.66;108299;1287;22012;-65
2023/06/19 04:19:07;;;;;;;8.70;7.00;;;;;;;26.56;57.63;100211.74;108086;1288;22005;-64
2023/06/19 04:21:33;;;;;;;10.80;6.50;;;;;;;26.59;57.96;100212.08;108116;1284;22000;-67
2023/06/19 04:23:59;;;;;;;14.70;7.40;;;;;;;26.62;58.11;100210.28;108101;1287;21990;-63
2023/06/19 04:26:24;;;;;;;8.90;6.20;;;;;;;26.65;58.28;100207.86;108106;1287;21965;-66
2023/06/19 04:28:50;;;;;;;11.40;6.40;;;;;;;26.67;58.60;100206.94;108226;1287;21989;-64
2023/06/19 04:31:18;;;;;;;10.60;6.30;;;;;;;26.69;58.95;100203.88;108130;1285;21989;-67
2023/06/19 04:33:45;;;;;;;9.40;6.10;;;;;;;26.70;58.95;100199.32;108169;1287;21986;-64
2023/06/19 04:36:11;;;;;;;10.10;6.30;;;;;;;26.70;59.25;100195.02;108143;1287;22012;-66
2023/06/19 04:38:36;;;;;;;8.40;6.50;;;;;;;26.67;60.34;100193.05;108093;1284;22026;-67
2023/06/19 04:41:02;;;;;;;12.50;6.30;;;;;;;26.62;60.67;100194.80;108142;1284;21986;-66
2023/06/19 04:43:28;;;;;;;8.40;6.20;;;;;;;26.55;60.66;100195.45;108107;1287;21997;-66
2023/06/19 04:45:54;;;;;;;11.30;6.40;;;;;;;26.54;60.54;100198.65;108036;1286;21991;-63
2023/06/19 04:48:19;;;;;;;15.60;6.80;;;;;;;26.55;60.17;100201.04;108180;1287;21990;-65
2023/06/19 04:50:45;;;;;;;9.20;6.40;;;;;;;26.61;60.45;100205.27;108124;1287;22008;-65
2023/06/19 04:53:11;;;;;;;11.90;7.90;;;;;;;26.66;60.77;100208.32;108285;1287;22018;-68
2023/06/19 04:55:37;;;;;;;19.10;8.60;;;;;;;26.66;61.14;100213.86;108319;1281;21981;-64
2023/06/19 04:58:03;;;;;;;46.20;16.50;;;;;;;26.67;60.51;100218.66;108223;1287;21988;-66
2023/06/19 05:00:28;;;;;;;15.30;7.90;;;;;;;26.70;61.15;100223.61;108075;1287;21988;-66
2023/06/19 05:02:59;;;;;;;13.90;6.80;;;;;;;26.72;60.93;100227.22;108095;1286;21995;-66
2023/06/19 05:05:27;;;;;;;9.80;6.60;;;;;;;26.74;61.64;100227.39;108084;1287;21999;-65
2023/06/19 05:07:52;;;;;;;8.50;6.50;;;;;;;26.76;61.48;100229.79;108142;1287;22049;-64
2023/06/19 05:10:19;;;;;;;11.50;8.10;;;;;;;26.79;62.07;100235.14;108107;1287;22028;-65
2023/06/19 05:12:44;;;;;;;11.80;7.70;;;;;;;26.80;62.20;100238.77;108134;1287;21993;-64
2023/06/19 05:15:10;;;;;;;11.50;7.30;;;;;;;26.83;61.56;100241.66;108068;1278;22002;-67
2023/06/19 05:17:38;;;;;;;15.50;7.00;;;;;;;26.91;60.69;100245.65;108130;1287;22027;-67
2023/06/19 05:20:07;;;;;;;11.10;6.70;;;;;;;27.07;60.59;100248.50;108164;1284;21986;-67
2023/06/19 05:22:34;;;;;;;13.70;7.10;;;;;;;27.22;60.80;100251.34;108145;1288;22004;-67
2023/06/19 05:25:00;;;;;;;9.80;7.00;;;;;;;27.35;60.69;100257.27;108106;1287;22057;-66
2023/06/19 05:27:26;;;;;;;9.00;6.80;;;;;;;27.45;61.24;100259.90;108106;1287;21985;-65
2023/06/19 05:29:51;;;;;;;11.00;6.80;;;;;;;27.45;61.70;100262.03;108105;1281;21986;-65
2023/06/19 05:32:17;;;;;;;10.60;6.90;;;;;;;27.36;61.36;100264.96;108122;1287;21987;-66
2023/06/19 05:34:43;;;;;;;13.00;7.90;;;;;;;27.30;60.95;100270.86;108085;1287;22004;-65
2023/06/19 05:37:08;;;;;;;10.00;6.90;;;;;;;27.32;61.57;100273.97;108102;1287;21989;-64
2023/06/19 05:39:35;;;;;;;10.10;6.60;;;;;;;27.31;61.24;100274.91;108075;1287;21986;-65
2023/06/19 05:42:01;;;;;;;14.30;11.50;;;;;;;27.31;61.33;100276.16;108095;1284;22455;-63
2023/06/19 05:44:27;;;;;;;11.20;9.70;;;;;;;27.30;61.86;100272.30;108209;1284;22007;-64
2023/06/19 05:46:53;;;;;;;9.10;8.20;;;;;;;27.26;61.79;100272.14;108026;1287;22005;-64
2023/06/19 05:49:18;;;;;;;12.60;8.50;;;;;;;27.24;61.80;100270.63;108045;1287;21991;-64
2023/06/19 05:51:44;;;;;;;8.80;6.90;;;;;;;27.24;62.54;100270.12;108160;1287;21989;-64
2023/06/19 05:54:13;;;;;;;11.00;9.30;;;;;;;27.24;62.53;100269.41;108077;1278;21987;-64
2023/06/19 05:56:41;;;;;;;11.50;9.00;;;;;;;27.26;62.73;100266.52;108104;1287;21986;-63
2023/06/19 05:59:07;;;;;;;9.80;7.10;;;;;;;27.29;62.97;100266.98;108110;1287;21996;-65
2023/06/19 06:01:32;;;;;;;7.70;6.20;;;;;;;27.33;63.33;100268.66;108109;1287;22449;-64
2023/06/19 06:03:58;;;;;;;18.90;14.30;;;;;;;27.34;62.94;100268.94;108091;1287;21998;-63
2023/06/19 06:06:24;;;;;;;19.20;15.10;;;;;;;27.33;62.28;100269.52;108086;1287;21989;-66
2023/06/19 06:08:51;;;;;;;10.80;9.40;;;;;;;27.33;62.42;100268.50;108079;1284;21992;-66
2023/06/19 06:11:17;;;;;;;11.10;9.60;;;;;;;27.31;61.93;100268.80;108165;1287;21987;-65
2023/06/19 06:13:42;;;;;;;49.60;39.60;;;;;;;27.30;61.61;100271.20;108114;1284;22005;-62
2023/06/19 06:16:08;;;;;;;15.30;12.80;;;;;;;27.31;61.56;100271.66;108061;1287;21981;-66
2023/06/19 06:18:34;;;;;;;12.40;9.00;;;;;;;27.28;61.98;100269.56;107998;1287;22024;-63
2023/06/19 06:21:00;;;;;;;31.50;23.80;;;;;;;27.26;62.32;100268.84;108062;1287;21989;-63
2023/06/19 06:23:25;;;;;;;18.10;13.60;;;;;;;27.25;62.44;100266.30;108105;1278;21987;-62
2023/06/19 06:25:51;;;;;;;8.40;7.10;;;;;;;27.15;62.67;100263.46;108121;1288;21989;-63
2023/06/19 06:28:18;;;;;;;11.00;8.30;;;;;;;27.03;62.75;100264.14;108113;1288;22079;-61
2023/06/19 06:30:44;;;;;;;9.60;6.90;;;;;;;26.97;63.14;100269.80;108145;1288;22018;-61
2023/06/19 06:33:09;;;;;;;8.30;6.10;;;;;;;26.89;63.38;100272.49;108122;1288;21990;-67
2023/06/19 06:35:35;;;;;;;9.40;7.40;;;;;;;26.79;63.59;100271.10;108113;1284;22009;-63
2023/06/19 06:38:02;;;;;;;13.80;8.80;;;;;;;26.71;63.74;100269.61;108129;1287;21991;-68
2023/06/19 06:40:28;;;;;;;9.60;8.10;;;;;;;26.65;64.35;100268.85;108197;1285;21995;-63
2023/06/19 06:42:54;;;;;;;9.00;7.30;;;;;;;26.62;64.89;100274.27;108176;1282;21994;-63
2023/06/19 06:45:19;;;;;;;9.00;6.90;;;;;;;26.61;65.40;100276.90;108157;1287;21990;-69
2023/06/19 06:47:45;;;;;;;12.60;10.80;;;;;;;26.59;65.15;100274.69;108243;1287;22001;-69
2023/06/19 06:50:11;;;;;;;13.30;10.70;;;;;;;26.58;65.45;100265.98;108229;1286;22062;-68
2023/06/19 06:52:37;;;;;;;8.70;7.30;;;;;;;26.57;65.51;100265.80;108121;1288;21992;-68
2023/06/19 06:55:04;;;;;;;9.80;6.60;;;;;;;26.60;66.55;100261.16;108282;1288;21997;-69
2023/06/19 06:57:30;;;;;;;8.00;6.90;;;;;;;26.62;67.19;100262.98;108249;1281;21999;-70
2023/06/19 06:59:56;;;;;;;7.60;6.20;;;;;;;26.65;67.66;100263.45;108216;1288;21998;-69
2023/06/19 07:02:21;;;;;;;7.50;6.70;;;;;;;26.66;67.23;100261.56;108136;1281;21989;-69
2023/06/19 07:04:48;;;;;;;8.20;7.40;;;;;;;26.68;68.18;100257.04;108206;1280;21995;-62
2023/06/19 07:07:14;;;;;;;10.40;7.40;;;;;;;26.72;68.06;100258.71;108180;1288;21995;-63
2023/06/19 07:09:39;;;;;;;7.60;6.80;;;;;;;26.77;67.54;100255.80;108142;1288;22003;-63
2023/06/19 07:12:07;;;;;;;8.00;6.10;;;;;;;26.81;67.54;100253.84;108221;1278;21989;-62
2023/06/19 07:14:32;;;;;;;9.40;6.10;;;;;;;26.85;67.62;100253.68;108247;1284;23059;-62
2023/06/19 07:16:58;;;;;;;8.80;6.90;;;;;;;26.90;68.20;100252.19;108161;1285;21990;-69
2023/06/19 07:19:24;;;;;;;9.60;6.40;;;;;;;26.95;67.57;100258.33;108164;1288;21996;-70
2023/06/19 07:21:50;;;;;;;10.90;6.40;;;;;;;26.99;66.88;100259.92;108174;1288;21989;-61
2023/06/19 07:24:16;;;;;;;9.40;6.00;;;;;;;27.05;67.16;100258.17;108271;1287;22151;-70
2023/06/19 07:26:43;;;;;;;9.40;5.80;;;;;;;27.12;67.07;100260.82;108059;1285;22004;-61
2023/06/19 07:29:08;;;;;;;7.90;6.70;;;;;;;27.21;67.04;100262.98;108114;1287;21986;-70
2023/06/19 07:31:34;;;;;;;7.90;7.00;;;;;;;27.28;67.28;100264.55;108266;1287;21983;-61
2023/06/19 07:34:00;;;;;;;7.50;6.60;;;;;;;27.33;68.06;100266.82;108258;1287;21995;-72
2023/06/19 07:36:25;;;;;;;8.80;5.40;;;;;;;27.36;67.78;100271.15;108277;1283;21992;-62
2023/06/19 07:38:51;;;;;;;8.60;5.80;;;;;;;27.39;67.64;100276.61;108229;1287;21995;-72
2023/06/19 07:41:17;;;;;;;7.40;6.10;;;;;;;27.44;67.69;100280.65;108066;1287;22041;-72
2023/06/19 07:43:42;;;;;;;15.30;10.20;;;;;;;27.51;67.85;100286.57;108180;1287;21991;-73
2023/06/19 07:46:09;;;;;;;9.80;7.70;;;;;;;27.58;67.71;100281.65;108220;1283;21989;-72
2023/06/19 07:48:36;;;;;;;10.00;6.50;;;;;;;27.64;67.13;100282.45;108214;1287;22021;-60
2023/06/19 07:51:02;;;;;;;7.00;5.20;;;;;;;27.68;67.68;100284.08;108244;1287;21991;-75
2023/06/19 07:53:30;;;;;;;8.10;5.30;;;;;;;27.72;66.82;100283.34;108088;1287;22239;-61
2023/06/19 07:55:55;;;;;;;8.10;5.40;;;;;;;27.78;66.42;100278.92;108207;1287;22002;-74
2023/06/19 07:58:22;;;;;;;11.30;8.00;;;;;;;27.85;67.05;100277.80;108033;1287;21989;-75
2023/06/19 08:00:47;;;;;;;10.10;6.20;;;;;;;27.91;67.99;100278.54;108162;1278;21997;-61
2023/06/19 08:03:13;;;;;;;8.80;6.00;;;;;;;27.95;67.93;100280.85;108150;1282;22456;-62
2023/06/19 08:05:39;;;;;;;8.60;5.20;;;;;;;27.99;68.07;100288.27;108175;1287;22001;-62
2023/06/19 08:08:04;;;;;;;7.20;5.20;;;;;;;28.02;67.43;100293.42;108095;1287;21989;-61
2023/06/19 08:10:30;;;;;;;7.60;5.70;;;;;;;28.10;68.04;100299.93;108185;1283;21987;-61
2023/06/19 08:12:57;;;;;;;10.00;8.00;;;;;;;28.17;67.17;100305.80;108202;1287;21991;-61
2023/06/19 08:15:24;;;;;;;7.80;5.50;;;;;;;28.26;66.52;100307.44;108135;1278;22445;-76
2023/06/19 08:17:49;;;;;;;7.90;5.30;;;;;;;28.35;66.01;100308.21;107978;1287;22258;-77
2023/06/19 08:20:15;;;;;;;8.20;5.40;;;;;;;28.44;65.52;100304.90;107964;1287;21993;-75
2023/06/19 08:22:41;;;;;;;9.40;5.80;;;;;;;28.51;65.33;100304.89;108114;1287;22010;-74
2023/06/19 08:25:07;;;;;;;10.00;6.40;;;;;;;28.57;64.76;100302.67;108146;1287;22024;-75
2023/06/19 08:27:33;;;;;;;6.60;5.40;;;;;;;28.66;64.33;100302.63;108267;1288;23644;-75
2023/06/19 08:29:59;;;;;;;7.60;6.40;;;;;;;28.73;63.61;100302.15;108248;1287;21987;-61
2023/06/19 08:32:25;;;;;;;8.80;6.50;;;;;;;28.77;63.37;100302.92;108176;1276;22027;-74
2023/06/19 08:34:51;;;;;;;6.20;5.30;;;;;;;28.82;63.48;100305.77;108284;1284;23006;-76
2023/06/19 08:37:18;;;;;;;8.20;5.90;;;;;;;28.85;63.42;100305.09;108105;1280;23716;-75
2023/06/19 08:39:44;;;;;;;7.90;4.90;;;;;;;28.88;63.36;100307.17;108235;1276;22000;-74
2023/06/19 08:42:09;;;;;;;7.10;5.20;;;;;;;28.91;62.37;100307.58;108258;1284;24924;-62
2023/06/19 08:44:35;;;;;;;6.90;4.80;;;;;;;28.96;62.30;100306.98;108203;1288;21996;-61
2023/06/19 08:47:04;;;;;;;8.50;5.70;;;;;;;29.00;62.07;100307.88;108282;1287;21994;-75
2023/06/19 08:49:33;;;;;;;9.70;5.80;;;;;;;29.06;61.93;100304.64;108189;1280;21977;-75
2023/06/19 08:51:59;;;;;;;8.40;5.40;;;;;;;29.11;62.10;100301.64;108102;1280;23660;-62
2023/06/19 08:54:25;;;;;;;6.10;4.70;;;;;;;29.14;62.19;100299.77;107996;1287;22452;-75
2023/06/19 08:56:53;;;;;;;5.70;4.80;;;;;;;29.19;62.04;100300.58;108094;1287;21990;-76
2023/06/19 08:59:19;;;;;;;8.00;4.70;;;;;;;29.28;61.43;100301.49;109268;1287;21987;-62
2023/06/19 09:01:52;;;;;;;7.40;4.30;;;;;;;29.40;61.27;100300.66;108167;1287;21991;-62
2023/06/19 09:04:19;;;;;;;8.00;4.70;;;;;;;29.53;61.36;100299.86;108147;1283;21991;-62
2023/06/19 09:06:52;;;;;;;5.70;4.60;;;;;;;29.75;62.49;100293.05;108197;1287;22090;-72
2023/06/19 09:09:20;;;;;;;5.70;4.70;;;;;;;30.10;62.61;100290.14;108177;1276;22085;-73
2023/06/19 09:12:07;;;;;;;7.20;4.70;;;;;;;30.49;61.66;100285.25;108092;1287;21987;-62
2023/06/19 09:14:45;;;;;;;6.20;4.50;;;;;;;30.90;60.56;100285.46;108129;1283;21986;-62
2023/06/19 09:17:19;;;;;;;8.20;5.20;;;;;;;31.30;59.37;100280.13;108128;1287;21982;-61
2023/06/19 09:19:48;;;;;;;6.20;5.00;;;;;;;31.67;58.92;100275.73;108118;1287;22002;-63
2023/06/19 09:22:18;;;;;;;5.90;4.60;;;;;;;32.05;58.46;100274.62;107922;1287;23662;-72
2023/06/19 09:24:44;;;;;;;7.20;4.60;;;;;;;32.40;56.23;100271.33;107991;1286;22099;-73
2023/06/19 09:27:18;;;;;;;5.90;4.70;;;;;;;32.60;54.90;100264.90;108126;1288;22026;-74
2023/06/19 09:29:46;;;;;;;5.40;4.50;;;;;;;32.80;53.68;100266.91;108159;1284;21999;-72
2023/06/19 09:32:22;;;;;;;9.20;5.90;;;;;;;33.08;53.60;100267.88;108175;1283;23712;-62
2023/06/19 09:34:50;;;;;;;7.10;5.30;;;;;;;33.32;53.90;100263.26;108147;1288;22784;-61
2023/06/19 09:37:20;;;;;;;5.00;4.50;;;;;;;33.57;53.28;100258.71;108189;1288;21986;-62
2023/06/19 09:39:46;;;;;;;7.00;4.60;;;;;;;33.80;51.98;100258.13;108112;1287;21989;-73
2023/06/19 09:42:12;;;;;;;7.90;4.20;;;;;;;34.04;50.81;100258.63;107977;1288;21996;-62
2023/06/19 09:44:42;;;;;;;8.10;4.70;;;;;;;34.19;49.13;100255.20;107701;1283;22006;-71
2023/06/19 09:47:23;;;;;;;6.90;4.60;;;;;;;34.29;47.81;100257.38;108195;1279;22042;-72
2023/06/19 09:49:54;;;;;;;5.40;4.40;;;;;;;34.35;47.37;100254.30;108130;1280;23717;-72
2023/06/19 09:52:22;;;;;;;6.50;4.10;;;;;;;34.45;47.15;100252.13;108146;1277;22449;-62
2023/06/19 09:54:49;;;;;;;8.30;4.60;;;;;;;34.45;45.44;100248.97;108236;1280;21994;-62
2023/06/19 09:57:15;;;;;;;6.20;4.40;;;;;;;34.39;45.82;100249.98;108196;1286;21995;-72
2023/06/19 09:59:41;;;;;;;5.60;4.90;;;;;;;34.52;45.50;100246.93;108181;1287;23721;-73
2023/06/19 10:02:08;;;;;;;6.80;4.10;;;;;;;34.74;43.93;100245.10;108145;1287;21997;-62
2023/06/19 10:04:49;;;;;;;5.90;4.90;;;;;;;34.77;42.38;100247.56;108438;1287;22740;-61
2023/06/19 10:07:20;;;;;;;5.90;5.00;;;;;;;34.76;42.44;100247.65;108172;1285;21989;-71
2023/06/19 10:09:57;;;;;;;7.30;4.80;;;;;;;34.78;42.73;100246.09;107893;1286;22016;-71
2023/06/19 10:12:35;;;;;;;5.70;4.40;;;;;;;34.88;42.22;100246.23;108198;1279;21991;-61
2023/06/19 10:15:18;;;;;;;6.70;4.40;;;;;;;35.00;42.07;100242.78;108201;1287;22007;-70
2023/06/19 10:18:05;;;;;;;7.70;4.90;;;;;;;35.00;41.65;100242.27;108103;1277;21955;-70
2023/06/19 10:20:32;;;;;;;6.60;4.40;;;;;;;34.94;41.40;100244.08;108157;1284;21992;-61
2023/06/19 10:23:10;;;;;;;6.10;4.50;;;;;;;34.85;41.65;100243.45;108106;1283;22026;-70
2023/06/19 10:25:37;;;;;;;8.10;4.40;;;;;;;34.99;40.84;100241.16;108181;1282;21986;-60
2023/06/19 10:28:07;;;;;;;7.20;4.40;;;;;;;34.95;39.89;100239.56;108169;1288;21989;-61
2023/06/19 10:30:34;;;;;;;5.30;4.50;;;;;;;34.80;40.00;100234.40;108184;1288;21988;-61
2023/06/19 10:33:02;;;;;;;5.70;4.40;;;;;;;34.78;40.23;100233.66;108088;1288;21992;-71
2023/06/19 10:35:28;;;;;;;6.10;4.60;;;;;;;34.83;40.20;100233.45;108173;1288;22748;-71
2023/06/19 10:37:54;;;;;;;5.00;4.40;;;;;;;34.83;39.02;100230.71;108179;1280;22200;-70
2023/06/19 10:40:20;;;;;;;8.90;4.90;;;;;;;34.82;39.45;100229.95;108129;1288;22099;-71
2023/06/19 10:42:46;;;;;;;10.90;4.80;;;;;;;34.84;39.04;100228.21;108127;1283;23730;-69
2023/06/19 10:45:13;;;;;;;6.20;4.70;;;;;;;34.79;38.41;100226.17;108271;1288;22037;-69
2023/06/19 10:47:39;;;;;;;6.80;5.10;;;;;;;34.54;38.31;100223.08;108263;1282;22093;-60
2023/06/19 10:50:14;;;;;;;6.20;4.70;;;;;;;34.27;38.38;100227.88;108165;1285;21997;-59
2023/06/19 10:52:44;;;;;;;8.00;4.20;;;;;;;34.16;38.73;100229.06;108148;1288;21986;-60
2023/06/19 10:55:10;;;;;;;8.90;4.80;;;;;;;34.10;38.70;100226.02;108148;1277;22080;-60
2023/06/19 10:57:36;;;;;;;21.40;5.00;;;;;;;34.09;38.77;100224.10;108141;1288;21996;-60
2023/06/19 11:00:11;;;;;;;7.40;4.50;;;;;;;34.06;38.39;100223.64;108140;1288;22015;-60
2023/06/19 11:02:43;;;;;;;8.20;4.70;;;;;;;33.94;38.66;100215.83;108191;1287;21994;-61
2023/06/19 11:05:12;;;;;;;9.90;4.50;;;;;;;33.81;38.79;100214.45;108274;1288;21953;-69
2023/06/19 11:07:38;;;;;;;6.50;4.30;;;;;;;33.75;38.85;100219.86;108178;1288;22461;-60
2023/06/19 11:10:04;;;;;;;6.40;4.70;;;;;;;33.63;38.68;100217.85;108127;1287;21967;-60
2023/06/19 11:12:32;;;;;;;5.50;4.10;;;;;;;33.61;39.09;100220.13;108195;1280;21987;-60